« Back
NWS Peachtree City, Ga » Text Product » CSG Terminal Aerodrome Forecast


Printer-friendly Version
Current Version              Previous Versions:   1  2  3  4  5  6  7  8  9  

Terminal Aerodrome Forecast

497
FTUS42 KFFC 280345 AAB
TAFCSG
TAF AMD
KCSG 280345Z 2804/2824 25009KT P6SM SCT060
     FM280800 25005KT P6SM SCT250
     FM281500 25010G15KT P6SM FEW040
     FM281800 24012G18KT P6SM VCSH BKN050=

USA.gov is the U.S. government's official web portal to all federal, state and local government web resources and services.